Time;durP1;ratioP1;P1;durP2;ratioP2;P2;SDS_P1;SDS_P2;PMS_P1;PMS_P2;Temp;Humidity;BMP_temperature;BMP_pressure;BME280_temperature;BME280_humidity;BME280_pressure;Samples;Min_cycle;Max_cycle;Signal;HPM_P1;HPM_P2
2021/11/16 00:02:12;;;;;;;28.03;17.30;;;9.10;82.60;;;;;;4893418;29;20456;-41
2021/11/16 00:04:40;;;;;;;24.00;14.70;;;9.10;82.70;;;;;;4911603;29;20523;-41
2021/11/16 00:07:07;;;;;;;22.90;15.17;;;9.10;82.60;;;;;;4908424;29;20476;-41
2021/11/16 00:09:34;;;;;;;20.70;14.33;;;9.00;82.60;;;;;;4909481;29;20479;-41
2021/11/16 00:12:01;;;;;;;25.90;15.60;;;9.00;82.60;;;;;;4910015;29;20468;-40
2021/11/16 00:14:30;;;;;;;24.67;13.80;;;9.10;82.40;;;;;;4911040;29;20503;-40
2021/11/16 00:16:57;;;;;;;29.07;16.33;;;9.00;82.50;;;;;;4912063;29;20804;-40
2021/11/16 00:19:26;;;;;;;22.90;14.90;;;9.10;82.50;;;;;;4908238;29;20536;-40
2021/11/16 00:21:56;;;;;;;23.27;15.43;;;9.10;82.40;;;;;;4907171;29;20472;-40
2021/11/16 00:24:46;;;;;;;23.17;14.77;;;9.10;82.50;;;;;;4908318;29;20465;-41
2021/11/16 00:27:13;;;;;;;23.83;13.80;;;9.10;82.30;;;;;;4910785;29;20487;-41
2021/11/16 00:29:42;;;;;;;24.63;16.40;;;9.10;82.50;;;;;;4908932;29;20468;-41
2021/11/16 00:32:09;;;;;;;25.27;14.83;;;9.10;82.70;;;;;;4908967;29;21058;-40
2021/11/16 00:34:35;;;;;;;24.70;15.10;;;9.10;82.70;;;;;;4909015;29;20896;-40
2021/11/16 00:37:02;;;;;;;24.33;15.83;;;9.10;82.80;;;;;;4893226;29;20831;-40
2021/11/16 00:39:29;;;;;;;30.57;16.63;;;9.10;82.80;;;;;;4888873;29;20457;-40
2021/11/16 00:41:56;;;;;;;23.80;14.00;;;9.10;82.80;;;;;;4909951;29;21075;-40
2021/11/16 00:44:23;;;;;;;28.17;16.20;;;9.10;82.70;;;;;;4910499;29;20472;-40
2021/11/16 00:46:49;;;;;;;26.17;14.60;;;9.10;82.90;;;;;;4905817;29;20473;-40
2021/11/16 00:49:16;;;;;;;25.93;15.63;;;9.10;82.80;;;;;;4892939;29;20492;-40
2021/11/16 00:51:43;;;;;;;26.07;15.50;;;9.10;82.70;;;;;;4891965;29;20469;-40
2021/11/16 00:54:10;;;;;;;27.40;15.80;;;9.00;82.90;;;;;;4890682;29;20492;-40
2021/11/16 00:56:36;;;;;;;31.30;16.47;;;9.00;83.10;;;;;;4909043;29;20496;-40
2021/11/16 00:59:03;;;;;;;28.53;17.10;;;9.00;83.20;;;;;;4908871;29;20465;-40
2021/11/16 01:01:30;;;;;;;24.30;15.20;;;9.00;83.10;;;;;;4907362;29;20457;-40
2021/11/16 01:03:57;;;;;;;30.20;18.30;;;9.00;83.10;;;;;;4910140;29;20555;-40
2021/11/16 01:06:23;;;;;;;27.37;15.87;;;9.00;83.10;;;;;;4905193;29;20919;-40
2021/11/16 01:08:51;;;;;;;26.43;15.10;;;9.00;83.10;;;;;;4893646;29;20476;-40
2021/11/16 01:11:18;;;;;;;26.77;16.20;;;9.00;83.10;;;;;;4909537;29;20483;-40
2021/11/16 01:13:45;;;;;;;23.90;15.63;;;9.00;83.00;;;;;;4911152;29;20874;-40
2021/11/16 01:16:14;;;;;;;33.50;17.33;;;9.10;82.80;;;;;;4913378;29;20517;-40
2021/11/16 01:18:41;;;;;;;28.90;16.57;;;9.00;82.80;;;;;;4911980;29;20532;-40
2021/11/16 01:21:07;;;;;;;30.73;17.60;;;9.00;82.90;;;;;;4908109;29;20472;-40
2021/11/16 01:23:34;;;;;;;25.87;16.73;;;9.00;83.10;;;;;;4909893;29;20466;-40
2021/11/16 01:26:01;;;;;;;27.50;15.63;;;9.00;83.10;;;;;;4897623;29;20472;-40
2021/11/16 01:28:29;;;;;;;28.83;16.60;;;9.00;83.20;;;;;;4911277;29;20486;-40
2021/11/16 01:30:59;;;;;;;30.80;18.47;;;8.90;83.30;;;;;;4911310;29;20464;-40
2021/11/16 01:33:29;;;;;;;26.17;16.37;;;8.90;83.30;;;;;;4911306;29;20893;-41
2021/11/16 01:35:56;;;;;;;25.27;14.90;;;8.90;83.20;;;;;;4893592;29;20460;-41
2021/11/16 01:38:24;;;;;;;27.60;15.60;;;8.90;83.10;;;;;;4912075;29;20501;-41
2021/11/16 01:40:52;;;;;;;24.70;16.27;;;8.90;83.20;;;;;;4908792;29;20514;-41
2021/11/16 01:43:19;;;;;;;27.47;15.63;;;8.90;83.10;;;;;;4912907;29;20983;-41
2021/11/16 01:46:02;;;;;;;25.20;15.97;;;8.90;82.80;;;;;;4912169;29;20473;-41
2021/11/16 01:48:30;;;;;;;24.77;15.27;;;8.90;82.80;;;;;;4913106;29;20994;-41
2021/11/16 01:50:57;;;;;;;29.40;16.57;;;9.00;82.70;;;;;;4912924;29;20865;-40
2021/11/16 01:53:24;;;;;;;29.33;16.27;;;8.90;83.00;;;;;;4910550;29;20834;-41
2021/11/16 01:55:51;;;;;;;32.30;17.10;;;8.90;83.20;;;;;;4913879;29;20499;-41
2021/11/16 01:58:17;;;;;;;28.60;16.23;;;8.90;83.30;;;;;;4897409;29;20472;-41
2021/11/16 02:00:46;;;;;;;28.83;17.03;;;8.90;83.40;;;;;;4895394;29;20484;-41
2021/11/16 02:03:13;;;;;;;36.30;17.10;;;8.90;83.50;;;;;;4912267;29;20936;-41
2021/11/16 02:05:50;;;;;;;26.93;16.33;;;8.90;83.50;;;;;;4913927;29;20832;-41
2021/11/16 02:08:19;;;;;;;32.87;17.90;;;8.90;83.50;;;;;;4913116;29;20914;-41
2021/11/16 02:10:49;;;;;;;27.30;15.60;;;8.80;83.70;;;;;;4896997;29;20471;-40
2021/11/16 02:13:19;;;;;;;32.77;17.13;;;8.80;83.70;;;;;;4897893;29;20457;-41
2021/11/16 02:15:48;;;;;;;31.60;18.23;;;8.80;83.60;;;;;;4892417;29;20852;-41
2021/11/16 02:18:16;;;;;;;24.07;15.37;;;8.90;83.70;;;;;;4895706;29;20891;-40
2021/11/16 02:20:48;;;;;;;27.00;15.70;;;8.90;83.50;;;;;;4911268;29;20491;-40
2021/11/16 02:23:16;;;;;;;26.20;15.60;;;8.90;83.40;;;;;;4912519;29;20457;-40
2021/11/16 02:25:45;;;;;;;32.60;16.43;;;8.90;83.50;;;;;;4900538;29;20941;-40
2021/11/16 02:28:15;;;;;;;26.47;15.80;;;8.90;83.60;;;;;;4910998;29;20875;-40
2021/11/16 02:30:42;;;;;;;28.33;17.27;;;8.80;83.70;;;;;;4911254;29;20536;-40
2021/11/16 02:33:09;;;;;;;24.60;14.93;;;8.80;83.80;;;;;;4910560;29;21060;-40
2021/11/16 02:35:36;;;;;;;27.43;15.67;;;8.90;83.70;;;;;;4912118;29;20465;-41
2021/11/16 02:38:03;;;;;;;27.20;15.80;;;8.90;83.50;;;;;;4913386;29;20968;-41
2021/11/16 02:40:30;;;;;;;28.43;16.50;;;8.90;83.40;;;;;;4912037;29;20461;-42
2021/11/16 02:42:57;;;;;;;30.07;17.07;;;8.90;83.30;;;;;;4895124;29;20456;-41
2021/11/16 02:45:24;;;;;;;31.47;16.57;;;8.90;83.20;;;;;;4911341;29;20461;-41
2021/11/16 02:47:51;;;;;;;28.77;18.03;;;8.90;83.40;;;;;;4906854;29;20473;-41
2021/11/16 02:50:19;;;;;;;27.23;15.97;;;8.80;83.40;;;;;;4908195;29;20475;-41
2021/11/16 02:52:46;;;;;;;31.73;16.40;;;8.90;83.20;;;;;;4911089;29;20476;-40
2021/11/16 02:55:14;;;;;;;28.57;17.03;;;8.80;83.40;;;;;;4912094;29;20893;-40
2021/11/16 02:57:41;;;;;;;30.03;18.17;;;8.80;83.30;;;;;;4911850;29;20464;-40
2021/11/16 03:00:11;;;;;;;33.40;16.90;;;8.80;83.50;;;;;;4912110;29;20460;-40
2021/11/16 03:02:42;;;;;;;27.70;15.90;;;8.80;83.40;;;;;;4892824;29;20525;-40
2021/11/16 03:05:10;;;;;;;29.97;16.83;;;8.90;83.60;;;;;;4909918;29;20843;-40
2021/11/16 03:07:47;;;;;;;26.73;17.43;;;8.90;83.30;;;;;;4910533;29;20492;-41
2021/11/16 03:10:17;;;;;;;26.43;16.00;;;8.90;83.10;;;;;;4894112;29;20465;-41
2021/11/16 03:12:44;;;;;;;29.83;17.00;;;8.90;83.30;;;;;;4893456;29;20484;-41
2021/11/16 03:15:11;;;;;;;34.60;16.97;;;8.80;83.50;;;;;;4910865;29;20496;-41
2021/11/16 03:17:38;;;;;;;29.17;16.67;;;8.80;83.50;;;;;;4895053;29;20481;-41
2021/11/16 03:20:14;;;;;;;30.20;16.47;;;8.80;83.80;;;;;;4909705;29;20483;-41
2021/11/16 03:22:53;;;;;;;31.10;17.30;;;8.80;83.90;;;;;;4910893;29;20461;-41
2021/11/16 03:25:25;;;;;;;29.37;16.30;;;8.80;84.00;;;;;;4892947;29;20878;-41
2021/11/16 03:28:03;;;;;;;30.30;16.67;;;8.80;84.00;;;;;;4875464;29;20465;-41
2021/11/16 03:30:30;;;;;;;28.70;18.07;;;8.80;84.00;;;;;;4911200;29;20515;-41
2021/11/16 03:32:57;;;;;;;30.90;16.90;;;8.80;83.90;;;;;;4908336;29;20520;-41
2021/11/16 03:35:24;;;;;;;30.90;17.50;;;8.80;83.80;;;;;;4892543;29;20861;-41
2021/11/16 03:37:57;;;;;;;31.50;18.47;;;8.80;83.90;;;;;;4894156;29;20464;-41
2021/11/16 03:40:26;;;;;;;28.43;16.20;;;8.80;83.90;;;;;;4911710;29;20983;-41
2021/11/16 03:42:53;;;;;;;28.13;15.47;;;8.80;84.00;;;;;;4908919;29;20471;-41
2021/11/16 03:45:23;;;;;;;33.60;17.30;;;8.80;83.90;;;;;;4896361;29;20465;-41
2021/11/16 03:47:50;;;;;;;29.43;17.87;;;8.90;83.90;;;;;;4909459;29;20469;-41
2021/11/16 03:50:21;;;;;;;30.70;17.50;;;8.80;83.90;;;;;;4909329;29;20497;-42
2021/11/16 03:52:56;;;;;;;31.10;17.80;;;8.80;84.00;;;;;;4913041;29;20456;-42
2021/11/16 03:55:26;;;;;;;27.57;16.80;;;8.80;83.70;;;;;;4895743;29;20499;-41
2021/11/16 03:57:55;;;;;;;38.37;19.13;;;8.80;83.90;;;;;;4899327;29;20461;-42
2021/11/16 04:00:30;;;;;;;30.53;17.10;;;8.70;84.00;;;;;;4912808;29;20465;-43
2021/11/16 04:02:58;;;;;;;32.90;17.50;;;8.70;83.90;;;;;;4912155;29;20457;-42
2021/11/16 04:05:26;;;;;;;32.47;17.40;;;8.70;83.80;;;;;;4911914;29;20521;-42
2021/11/16 04:07:54;;;;;;;28.37;15.83;;;8.70;83.80;;;;;;4912785;29;20998;-42
2021/11/16 04:10:23;;;;;;;38.37;19.60;;;8.70;83.70;;;;;;4910664;29;20915;-42
2021/11/16 04:12:50;;;;;;;32.37;18.20;;;8.80;83.60;;;;;;4911944;29;20461;-42
2021/11/16 04:15:22;;;;;;;29.77;17.00;;;8.80;83.60;;;;;;4912364;29;20567;-42
2021/11/16 04:17:51;;;;;;;35.60;20.73;;;8.70;83.80;;;;;;4910248;29;20488;-42
2021/11/16 04:20:24;;;;;;;25.80;15.37;;;8.70;83.80;;;;;;4893512;29;20475;-42
2021/11/16 04:22:52;;;;;;;24.90;15.37;;;8.80;83.80;;;;;;4911106;29;20481;-42
2021/11/16 04:25:20;;;;;;;29.70;17.37;;;8.80;83.80;;;;;;4911979;29;20461;-42
2021/11/16 04:27:47;;;;;;;26.13;16.37;;;8.70;83.90;;;;;;4911819;29;20493;-42
2021/11/16 04:30:17;;;;;;;24.83;14.83;;;8.80;84.00;;;;;;4912135;29;20457;-42
2021/11/16 04:32:44;;;;;;;28.30;17.97;;;8.80;84.00;;;;;;4911236;29;20988;-42
2021/11/16 04:35:14;;;;;;;29.47;15.53;;;8.70;83.90;;;;;;4911790;29;20860;-42
2021/11/16 04:37:43;;;;;;;27.43;16.63;;;8.70;84.00;;;;;;4911101;29;20464;-42
2021/11/16 04:40:13;;;;;;;27.27;16.53;;;8.70;84.10;;;;;;4912452;29;20953;-42
2021/11/16 04:42:41;;;;;;;27.20;16.27;;;8.70;83.90;;;;;;4897596;29;20463;-42
2021/11/16 04:45:12;;;;;;;31.93;17.43;;;8.70;83.90;;;;;;4912235;29;20476;-42
2021/11/16 04:47:48;;;;;;;33.27;17.73;;;8.70;84.00;;;;;;4913902;29;20467;-42
2021/11/16 05:03:26;;;;;;;30.80;16.77;;;8.80;83.80;;;;;;4900551;29;20456;-41
2021/11/16 05:05:54;;;;;;;31.30;18.77;;;8.80;83.90;;;;;;4914519;29;20468;-42
2021/11/16 05:08:21;;;;;;;33.87;18.70;;;8.70;84.10;;;;;;4915319;29;20468;-42
2021/11/16 05:10:48;;;;;;;25.70;16.67;;;8.70;84.20;;;;;;4912817;29;20854;-42
2021/11/16 05:13:14;;;;;;;30.63;16.67;;;8.70;84.10;;;;;;4898817;29;20461;-41
2021/11/16 05:15:43;;;;;;;30.40;16.70;;;8.70;84.10;;;;;;4915301;29;20493;-41
2021/11/16 05:18:10;;;;;;;25.10;13.87;;;8.80;84.10;;;;;;4895557;29;20464;-41
2021/11/16 05:20:37;;;;;;;26.80;16.13;;;8.80;83.90;;;;;;4914224;29;20463;-41
2021/11/16 05:23:06;;;;;;;30.17;17.47;;;8.80;83.90;;;;;;4913511;29;20459;-41
2021/11/16 05:25:32;;;;;;;26.53;15.93;;;8.70;83.80;;;;;;4913091;29;20461;-41
2021/11/16 05:27:59;;;;;;;27.70;15.53;;;8.70;84.00;;;;;;4914256;29;20465;-42
2021/11/16 05:30:28;;;;;;;30.50;16.60;;;8.70;84.00;;;;;;4914054;29;20475;-43
2021/11/16 05:32:56;;;;;;;23.53;14.83;;;8.70;83.80;;;;;;4914098;29;20456;-42
2021/11/16 05:35:23;;;;;;;26.30;15.97;;;8.70;83.70;;;;;;4913995;29;20484;-42
2021/11/16 05:37:50;;;;;;;29.53;16.73;;;8.70;83.90;;;;;;4897782;29;20445;-42
2021/11/16 05:40:17;;;;;;;30.17;16.47;;;8.70;84.00;;;;;;4912859;29;20468;-42
2021/11/16 05:42:43;;;;;;;26.37;16.30;;;8.70;84.10;;;;;;4911844;29;21032;-42
2021/11/16 05:45:11;;;;;;;27.60;16.20;;;8.70;84.00;;;;;;4911157;29;20464;-42
2021/11/16 05:47:39;;;;;;;25.17;16.10;;;8.70;84.10;;;;;;4913138;29;20474;-42
2021/11/16 05:50:06;;;;;;;29.27;16.80;;;8.70;84.10;;;;;;4914524;29;20461;-42
2021/11/16 05:52:33;;;;;;;28.57;15.77;;;8.70;84.10;;;;;;4898175;29;20471;-42
2021/11/16 05:55:00;;;;;;;25.40;15.40;;;8.70;84.00;;;;;;4912920;29;20492;-41
2021/11/16 05:57:27;;;;;;;28.60;15.80;;;8.70;83.90;;;;;;4913342;29;20457;-41
2021/11/16 05:59:53;;;;;;;25.03;14.67;;;8.70;83.70;;;;;;4912895;29;20463;-41
2021/11/16 06:02:20;;;;;;;47.67;18.87;;;8.70;83.70;;;;;;4913692;29;20468;-42
2021/11/16 06:04:47;;;;;;;29.93;17.20;;;8.70;83.90;;;;;;4913309;29;20820;-42
2021/11/16 06:07:14;;;;;;;28.10;14.23;;;8.70;83.90;;;;;;4923335;29;20519;-42
2021/11/16 06:09:42;;;;;;;27.50;17.20;;;8.60;84.00;;;;;;4912813;29;20552;-41
2021/11/16 06:12:11;;;;;;;30.30;18.17;;;8.60;84.10;;;;;;4913451;29;20893;-41
2021/11/16 06:14:38;;;;;;;30.20;16.40;;;8.70;84.10;;;;;;4913451;29;20500;-41
2021/11/16 06:17:06;;;;;;;26.70;15.70;;;8.60;84.00;;;;;;4911349;29;20457;-42
2021/11/16 06:19:37;;;;;;;35.87;17.97;;;8.60;84.00;;;;;;4913337;29;20460;-42
2021/11/16 06:22:07;;;;;;;27.43;17.70;;;8.70;83.90;;;;;;4911725;29;20487;-42
2021/11/16 06:24:34;;;;;;;27.13;16.13;;;8.70;83.90;;;;;;4894949;29;20885;-42
2021/11/16 06:27:01;;;;;;;26.40;15.93;;;8.70;83.90;;;;;;4912618;29;20471;-42
2021/11/16 06:29:28;;;;;;;25.13;16.70;;;8.70;83.70;;;;;;4912824;29;20464;-42
2021/11/16 06:31:54;;;;;;;24.73;14.50;;;8.70;83.70;;;;;;4913837;29;20837;-42
2021/11/16 06:34:21;;;;;;;27.33;14.73;;;8.70;83.50;;;;;;4914240;29;20461;-42
2021/11/16 06:36:48;;;;;;;29.77;18.37;;;8.70;83.50;;;;;;4899023;29;20465;-42
2021/11/16 06:39:17;;;;;;;29.33;16.63;;;8.60;83.70;;;;;;4913328;29;20460;-41
2021/11/16 06:41:46;;;;;;;24.07;14.80;;;8.60;83.80;;;;;;4891679;29;21025;-41
2021/11/16 06:44:15;;;;;;;26.00;14.10;;;8.60;83.80;;;;;;4911470;29;20453;-41
2021/11/16 06:46:43;;;;;;;32.17;17.77;;;8.60;83.80;;;;;;4896531;29;20467;-41
2021/11/16 06:49:13;;;;;;;26.53;16.60;;;8.60;84.00;;;;;;4911406;29;20464;-41
2021/11/16 06:51:41;;;;;;;26.30;16.20;;;8.70;83.80;;;;;;4912955;29;20463;-41
2021/11/16 06:54:17;;;;;;;25.47;16.97;;;8.70;83.80;;;;;;4908820;29;20976;-42
2021/11/16 06:56:48;;;;;;;24.40;14.47;;;8.70;83.90;;;;;;4894594;29;21112;-42
2021/11/16 06:59:24;;;;;;;24.60;16.10;;;8.60;84.00;;;;;;4911021;29;20456;-41
2021/11/16 07:01:53;;;;;;;25.80;16.53;;;8.60;84.00;;;;;;4912742;29;20452;-41
2021/11/16 07:04:20;;;;;;;29.30;16.90;;;8.60;83.80;;;;;;4913909;29;20493;-41
2021/11/16 07:06:50;;;;;;;25.00;15.83;;;8.60;83.60;;;;;;4913347;29;20471;-41
2021/11/16 07:09:19;;;;;;;27.63;17.00;;;8.60;83.60;;;;;;4905446;29;20471;-41
2021/11/16 07:11:54;;;;;;;28.20;16.13;;;8.60;83.40;;;;;;4907633;29;20461;-41
2021/11/16 07:14:24;;;;;;;26.53;16.63;;;8.60;83.30;;;;;;4912520;29;20460;-41
2021/11/16 07:16:51;;;;;;;27.33;14.60;;;8.60;83.20;;;;;;4910066;29;20465;-41
2021/11/16 07:19:17;;;;;;;30.80;15.80;;;8.60;83.10;;;;;;4903937;29;20936;-41
2021/11/16 07:21:52;;;;;;;28.53;14.90;;;8.60;83.20;;;;;;4893554;29;20483;-41
2021/11/16 07:24:22;;;;;;;26.77;15.47;;;8.60;83.10;;;;;;4909987;29;21227;-41
2021/11/16 07:27:05;;;;;;;32.93;17.73;;;8.60;83.10;;;;;;4891628;29;20479;-41
2021/11/16 07:29:38;;;;;;;28.97;16.27;;;8.60;83.10;;;;;;4911070;29;20468;-42
2021/11/16 07:32:07;;;;;;;28.77;15.20;;;8.60;82.90;;;;;;4911798;29;20548;-41
2021/11/16 07:34:35;;;;;;;28.97;15.13;;;8.60;83.00;;;;;;4891813;29;20475;-41
2021/11/16 07:37:09;;;;;;;29.13;15.77;;;8.60;82.90;;;;;;4893255;29;21096;-41
2021/11/16 07:39:43;;;;;;;25.83;15.83;;;8.70;82.90;;;;;;4909290;29;20556;-41
2021/11/16 07:42:10;;;;;;;32.60;17.00;;;8.60;83.00;;;;;;4909478;29;20469;-41
2021/11/16 07:44:37;;;;;;;24.23;15.30;;;8.60;83.00;;;;;;4910673;29;20468;-41
2021/11/16 07:47:05;;;;;;;36.20;18.30;;;8.60;83.00;;;;;;4889470;29;20468;-41
2021/11/16 07:49:32;;;;;;;30.17;17.50;;;8.60;83.00;;;;;;4908060;29;20465;-41
2021/11/16 07:52:00;;;;;;;27.93;15.97;;;8.60;83.00;;;;;;4888982;29;20465;-41
2021/11/16 07:54:29;;;;;;;31.93;18.97;;;8.60;83.00;;;;;;4908389;29;20969;-42
2021/11/16 07:57:06;;;;;;;29.03;15.60;;;8.60;83.00;;;;;;4911574;29;20500;-41
2021/11/16 07:59:34;;;;;;;30.97;16.33;;;8.60;83.00;;;;;;4897031;29;20451;-42
2021/11/16 08:02:08;;;;;;;37.37;21.97;;;8.70;83.00;;;;;;4913456;29;20455;-42
2021/11/16 08:09:53;;;;;;;31.73;16.40;;;8.70;83.00;;;;;;4907434;29;20473;-42
2021/11/16 08:12:35;;;;;;;31.47;17.97;;;8.70;83.00;;;;;;4912506;29;20461;-42
2021/11/16 08:15:11;;;;;;;27.80;17.47;;;8.70;83.10;;;;;;4910820;29;20505;-42
2021/11/16 08:17:40;;;;;;;31.87;17.33;;;8.70;83.10;;;;;;4912058;29;20471;-42
2021/11/16 08:20:10;;;;;;;30.40;17.30;;;8.70;83.10;;;;;;4910576;29;20467;-42
2021/11/16 08:22:37;;;;;;;34.80;16.70;;;8.70;83.20;;;;;;4913822;29;20964;-42
2021/11/16 08:25:05;;;;;;;35.10;20.27;;;8.80;83.10;;;;;;4911804;29;20464;-42
2021/11/16 08:27:37;;;;;;;35.30;17.80;;;8.70;83.30;;;;;;4914007;29;20473;-42
2021/11/16 08:30:24;;;;;;;25.43;16.03;;;8.80;83.30;;;;;;4913772;29;20495;-42
2021/11/16 08:32:57;;;;;;;30.67;16.30;;;8.70;83.40;;;;;;4913983;29;20475;-42
2021/11/16 08:35:25;;;;;;;29.30;17.97;;;8.70;83.50;;;;;;4910168;29;20485;-42
2021/11/16 08:38:01;;;;;;;31.47;17.10;;;8.70;83.60;;;;;;4912588;29;20479;-42
2021/11/16 08:40:34;;;;;;;32.03;18.50;;;8.80;83.80;;;;;;4914348;29;20986;-41
2021/11/16 08:43:17;;;;;;;33.50;18.60;;;8.80;83.90;;;;;;4911081;29;20468;-42
2021/11/16 08:45:49;;;;;;;32.80;18.23;;;8.80;84.00;;;;;;4913080;29;20476;-42
2021/11/16 08:48:23;;;;;;;31.30;17.77;;;8.80;84.10;;;;;;4913624;29;20472;-42
2021/11/16 08:50:57;;;;;;;38.10;19.03;;;8.80;84.10;;;;;;4912929;29;20495;-43
2021/11/16 08:53:30;;;;;;;33.93;18.60;;;8.80;84.10;;;;;;4908560;29;20469;-43
2021/11/16 08:55:58;;;;;;;34.43;18.50;;;8.80;84.10;;;;;;4895131;29;20492;-42
2021/11/16 08:58:28;;;;;;;35.30;18.23;;;8.80;84.20;;;;;;4909108;29;20457;-42
2021/11/16 09:01:00;;;;;;;33.47;18.30;;;8.80;84.30;;;;;;4910000;29;20464;-43
2021/11/16 09:03:32;;;;;;;32.43;19.57;;;8.80;84.30;;;;;;4911076;29;20461;-43
2021/11/16 09:06:03;;;;;;;32.87;19.17;;;8.80;84.30;;;;;;4896486;29;20461;-43
2021/11/16 09:08:32;;;;;;;31.80;18.37;;;8.70;84.20;;;;;;4905986;29;20481;-43
2021/11/16 09:11:17;;;;;;;30.13;18.67;;;8.80;84.10;;;;;;4909328;29;20472;-43
2021/11/16 09:13:46;;;;;;;33.17;19.17;;;8.70;84.10;;;;;;4907882;29;20560;-42
2021/11/16 09:16:16;;;;;;;30.43;17.97;;;8.80;84.10;;;;;;4907594;29;20507;-43
2021/11/16 09:18:44;;;;;;;27.03;17.70;;;8.80;84.20;;;;;;4907181;29;20465;-43
2021/11/16 09:21:19;;;;;;;36.43;18.77;;;8.90;84.40;;;;;;4891412;29;20473;-43
2021/11/16 09:23:51;;;;;;;34.07;19.37;;;8.80;84.40;;;;;;4910621;29;20559;-43
2021/11/16 09:28:59;;;;;;;32.97;18.33;;;8.80;84.60;;;;;;4908395;29;20835;-42
2021/11/16 09:31:30;;;;;;;40.20;17.80;;;8.80;84.60;;;;;;4910369;29;20475;-42
2021/11/16 09:34:01;;;;;;;31.97;18.97;;;8.70;84.70;;;;;;4918160;29;20464;-42
2021/11/16 09:36:37;;;;;;;36.30;21.00;;;8.80;84.60;;;;;;4913732;29;21011;-42
2021/11/16 09:39:19;;;;;;;36.87;18.37;;;8.80;84.50;;;;;;4917069;29;20857;-42
2021/11/16 09:41:53;;;;;;;40.33;21.73;;;8.80;84.50;;;;;;4915306;29;20460;-43
2021/11/16 09:44:28;;;;;;;30.13;19.20;;;8.80;84.40;;;;;;4913565;29;20461;-43
2021/11/16 09:47:03;;;;;;;34.10;18.60;;;8.80;84.40;;;;;;4911783;29;20467;-42
2021/11/16 09:49:29;;;;;;;40.20;21.23;;;8.80;84.40;;;;;;4912172;29;20479;-42
2021/11/16 09:52:07;;;;;;;33.47;18.70;;;8.80;84.40;;;;;;4914610;29;20465;-42
2021/11/16 09:54:46;;;;;;;31.20;17.60;;;8.80;84.50;;;;;;4911861;29;20572;-42
2021/11/16 09:57:14;;;;;;;31.60;17.33;;;8.90;84.50;;;;;;4929180;29;20495;-42
2021/11/16 09:59:44;;;;;;;32.67;19.10;;;8.80;84.60;;;;;;4901205;29;20529;-42
2021/11/16 10:02:24;;;;;;;39.30;19.47;;;8.80;84.50;;;;;;4893176;29;21213;-42
2021/11/16 10:04:54;;;;;;;29.03;19.40;;;8.80;84.40;;;;;;4914484;29;20995;-41
2021/11/16 10:07:21;;;;;;;31.70;18.57;;;8.80;84.30;;;;;;4911168;29;20474;-41
2021/11/16 10:09:49;;;;;;;31.13;17.30;;;8.80;84.20;;;;;;4896160;29;20457;-41
2021/11/16 10:12:18;;;;;;;31.83;19.40;;;8.80;84.10;;;;;;4914546;29;20472;-41
2021/11/16 10:14:45;;;;;;;36.27;20.30;;;8.70;84.10;;;;;;4913180;29;20472;-42
2021/11/16 10:17:12;;;;;;;35.37;18.60;;;8.80;84.10;;;;;;4915162;29;20501;-42
2021/11/16 10:19:40;;;;;;;31.53;16.77;;;8.80;83.90;;;;;;4914697;29;20524;-42
2021/11/16 10:22:11;;;;;;;30.10;18.70;;;8.80;83.90;;;;;;4913352;29;20475;-42
2021/11/16 10:24:40;;;;;;;30.40;17.20;;;8.80;83.90;;;;;;4911687;29;20481;-42
2021/11/16 10:27:16;;;;;;;30.10;17.87;;;8.80;83.80;;;;;;4898988;29;20453;-42
2021/11/16 10:29:44;;;;;;;32.53;17.33;;;8.80;84.00;;;;;;4901143;29;20468;-42
2021/11/16 10:32:21;;;;;;;29.90;17.27;;;8.80;84.00;;;;;;4899397;29;20461;-42
2021/11/16 10:34:48;;;;;;;29.33;18.40;;;8.80;84.00;;;;;;4897025;29;20463;-42
2021/11/16 10:37:15;;;;;;;32.30;19.37;;;8.80;83.90;;;;;;4893807;29;20493;-42
2021/11/16 10:39:41;;;;;;;33.60;18.20;;;8.80;84.00;;;;;;4915376;29;20461;-42
2021/11/16 10:42:16;;;;;;;32.37;17.67;;;8.80;84.00;;;;;;4916606;29;20532;-42
2021/11/16 10:44:59;;;;;;;33.23;17.40;;;8.90;83.80;;;;;;4913118;29;20453;-42
2021/11/16 10:47:34;;;;;;;35.33;18.63;;;8.90;83.90;;;;;;4901680;29;20832;-42
2021/11/16 10:50:12;;;;;;;32.40;17.80;;;8.90;83.80;;;;;;4914864;29;20969;-42
2021/11/16 10:52:38;;;;;;;35.97;17.97;;;8.90;84.10;;;;;;4910568;29;20476;-42
2021/11/16 10:55:07;;;;;;;28.53;17.17;;;8.90;84.30;;;;;;4912923;29;20867;-41
2021/11/16 10:57:54;;;;;;;34.13;20.47;;;8.90;84.50;;;;;;4897825;29;20503;-42
2021/11/16 11:00:43;;;;;;;38.60;19.17;;;8.90;84.60;;;;;;4914701;29;20463;-42
2021/11/16 11:03:15;;;;;;;33.17;20.37;;;8.90;84.50;;;;;;4915553;29;20453;-42
2021/11/16 11:05:46;;;;;;;39.87;22.77;;;8.90;84.40;;;;;;4899828;29;20464;-42
2021/11/16 11:08:37;;;;;;;34.20;20.70;;;8.90;84.30;;;;;;4911921;29;20849;-42
2021/11/16 11:11:30;;;;;;;32.20;19.90;;;8.90;84.10;;;;;;4909441;29;20465;-42
2021/11/16 11:14:03;;;;;;;34.50;19.07;;;8.90;84.30;;;;;;4909162;29;20860;-42
2021/11/16 11:16:37;;;;;;;30.43;17.60;;;8.90;84.40;;;;;;4914272;29;21007;-42
2021/11/16 11:19:25;;;;;;;31.30;18.40;;;8.90;84.50;;;;;;4914961;29;20461;-42
2021/11/16 11:22:03;;;;;;;30.83;17.10;;;8.90;84.40;;;;;;4912550;29;20465;-42
2021/11/16 11:24:38;;;;;;;29.10;17.97;;;8.90;84.70;;;;;;4911701;29;20965;-42
2021/11/16 11:27:19;;;;;;;29.93;17.40;;;8.90;84.80;;;;;;4910877;29;20474;-42
2021/11/16 11:30:00;;;;;;;30.23;18.53;;;8.90;85.00;;;;;;4914996;29;20463;-42
2021/11/16 11:32:36;;;;;;;36.57;18.73;;;8.90;85.20;;;;;;4897697;29;21051;-42
2021/11/16 11:35:15;;;;;;;31.50;17.20;;;8.90;85.20;;;;;;4910671;29;20472;-42
2021/11/16 11:37:54;;;;;;;32.00;17.37;;;8.90;85.40;;;;;;4911358;29;20810;-42
2021/11/16 11:40:26;;;;;;;36.70;19.00;;;8.80;85.40;;;;;;4906145;29;20492;-42
2021/11/16 11:42:58;;;;;;;29.20;16.93;;;8.80;85.40;;;;;;4908081;29;20465;-42
2021/11/16 11:45:36;;;;;;;31.93;17.67;;;8.80;85.40;;;;;;4911574;29;20469;-42
2021/11/16 11:48:03;;;;;;;30.10;18.00;;;8.80;85.30;;;;;;4912090;29;20810;-42
2021/11/16 11:50:37;;;;;;;30.97;16.43;;;8.80;85.10;;;;;;4913470;29;20513;-42
2021/11/16 11:53:07;;;;;;;28.07;17.27;;;8.80;85.20;;;;;;4914345;29;20976;-42
2021/11/16 11:55:37;;;;;;;29.97;17.10;;;8.80;85.30;;;;;;4893951;29;20484;-42
2021/11/16 11:58:06;;;;;;;31.37;18.37;;;8.80;85.40;;;;;;4896879;29;20465;-42
2021/11/16 12:00:35;;;;;;;36.00;20.90;;;8.80;85.30;;;;;;4910752;29;20492;-43
2021/11/16 12:03:04;;;;;;;35.17;19.97;;;8.80;85.10;;;;;;4913038;29;20499;-43
2021/11/16 12:05:33;;;;;;;32.27;18.40;;;8.80;85.50;;;;;;4910668;29;21043;-43
2021/11/16 12:08:01;;;;;;;35.60;19.67;;;8.80;85.60;;;;;;4911061;29;20480;-42
2021/11/16 12:10:27;;;;;;;38.87;18.93;;;8.80;85.70;;;;;;4912389;29;20473;-42
2021/11/16 12:12:56;;;;;;;34.03;17.70;;;8.80;85.70;;;;;;4913466;29;20449;-42
2021/11/16 12:15:29;;;;;;;34.20;18.53;;;8.70;85.90;;;;;;4912651;29;20475;-42
2021/11/16 12:17:58;;;;;;;35.13;17.83;;;8.70;85.90;;;;;;4910673;29;20492;-42
2021/11/16 12:20:49;;;;;;;34.07;19.60;;;8.70;86.00;;;;;;4907390;29;20468;-43
2021/11/16 12:23:18;;;;;;;30.00;15.90;;;8.70;86.00;;;;;;4909047;29;20461;-43
2021/11/16 12:25:47;;;;;;;36.20;18.67;;;8.70;86.10;;;;;;4912196;29;20471;-43
2021/11/16 12:28:29;;;;;;;28.30;17.70;;;8.70;86.10;;;;;;4911668;29;20515;-43
2021/11/16 12:30:59;;;;;;;37.30;20.60;;;8.70;86.20;;;;;;4912222;29;20475;-42
2021/11/16 12:33:40;;;;;;;37.20;19.77;;;8.70;86.20;;;;;;4913166;29;20921;-42
2021/11/16 12:36:12;;;;;;;37.30;19.70;;;8.70;86.40;;;;;;4893560;29;20505;-42
2021/11/16 12:38:45;;;;;;;38.13;18.93;;;8.70;86.40;;;;;;4912113;29;20476;-42
2021/11/16 12:41:32;;;;;;;30.27;18.57;;;8.70;86.50;;;;;;4888828;29;20615;-42
2021/11/16 12:44:03;;;;;;;36.23;18.10;;;8.70;86.50;;;;;;4894229;29;20809;-42
2021/11/16 12:46:33;;;;;;;34.93;18.17;;;8.70;86.50;;;;;;4911756;29;20460;-42
2021/11/16 12:49:01;;;;;;;28.93;17.73;;;8.70;86.60;;;;;;4909018;29;20547;-42
2021/11/16 12:51:36;;;;;;;34.20;19.47;;;8.70;86.60;;;;;;4914699;29;20525;-42
2021/11/16 12:54:35;;;;;;;30.70;17.57;;;8.70;86.50;;;;;;4910874;29;20484;-42
2021/11/16 12:57:11;;;;;;;31.20;19.07;;;8.70;86.60;;;;;;4873224;29;20500;-42
2021/11/16 12:59:44;;;;;;;28.83;17.47;;;8.80;86.70;;;;;;4912543;29;20547;-42
2021/11/16 13:02:27;;;;;;;30.03;16.27;;;8.80;86.70;;;;;;4912659;29;20492;-42
2021/11/16 13:04:56;;;;;;;40.80;17.80;;;8.80;86.70;;;;;;4914362;29;20479;-42
2021/11/16 13:07:27;;;;;;;34.20;17.37;;;8.80;86.80;;;;;;4915521;29;20476;-42
2021/11/16 13:10:03;;;;;;;34.00;19.77;;;8.70;86.80;;;;;;4897990;29;20483;-42
2021/11/16 13:12:33;;;;;;;34.60;19.57;;;8.70;86.90;;;;;;4918180;29;20452;-42
2021/11/16 13:15:02;;;;;;;34.93;19.73;;;8.70;86.90;;;;;;4917435;29;20859;-42